Estación de Nogales

Ultimos registro cada 15 minutos 60
Estación Fecha / Hora Temperatura Humedad Lluvia Velocidad Dirección Radiación Presion
60 Nogales 02-09-2026 14:45 22,8 56,8 0 1,7 201 508,1 986,7
59 Nogales 02-09-2026 14:30 22,7 58,9 0 1,3 191 474,4 986,8
58 Nogales 02-09-2026 14:15 22,1 60,4 0 1,7 218 369,4 986,9
57 Nogales 02-09-2026 14:00 22,7 59,2 0 1 229 610,6 986,9
56 Nogales 02-09-2026 13:45 22,1 58,5 0 1,3 197 799,4 987,2
55 Nogales 02-09-2026 13:30 22 57,8 0 1 159 456,9 987,3
54 Nogales 02-09-2026 13:15 21,7 59,7 0 1 156 923,1 987,3
53 Nogales 02-09-2026 13:00 21,5 60,4 0 1 194 443,1 987,4
52 Nogales 02-09-2026 12:45 22,1 59,3 0 0,7 164 831,9 987,5
51 Nogales 02-09-2026 12:30 21,9 58 0 0,3 194 948,1 987,6
50 Nogales 02-09-2026 12:15 20,1 61,6 0 0,3 222 754,4 987,7
49 Nogales 02-09-2026 12:00 20 64,3 0 0 240 460,6 987,8
48 Nogales 02-09-2026 11:45 19,2 67,4 0 0 240 576,9 988
47 Nogales 02-09-2026 11:30 18,6 68,1 0 0 240 530,6 988
46 Nogales 02-09-2026 11:15 18,2 71,7 0 0 240 454,4 988,2
45 Nogales 02-09-2026 11:00 16,9 73,2 0 0 240 335,6 988,2
44 Nogales 02-09-2026 10:45 16,3 76,8 0 0 240 364,4 988,2
43 Nogales 02-09-2026 10:30 15,8 77,5 0 0 240 298,1 988
42 Nogales 02-09-2026 10:15 16 81,2 0 0 240 305,6 987,9
41 Nogales 02-09-2026 10:00 14,5 83,3 0 0 258 284,4 987,9
40 Nogales 02-09-2026 09:45 14,3 85,9 0 0 284 330,6 987,9
39 Nogales 02-09-2026 09:30 14,5 89,5 0 0 284 301,9 988
38 Nogales 02-09-2026 09:15 13 91,9 0 0 232 213,1 988,3
37 Nogales 02-09-2026 09:00 11,5 93,8 0 0,7 230 208,1 988,4
36 Nogales 02-09-2026 08:45 11,2 95,2 0 0 355 148,1 988,3
35 Nogales 02-09-2026 08:30 10,5 95,9 0 0 355 108,1 988,1
34 Nogales 02-09-2026 08:15 9,7 96,1 0 0 355 100,6 988,1
33 Nogales 02-09-2026 08:00 9,4 96,3 0 0 355 59,4 987,9
32 Nogales 02-09-2026 07:45 9,3 96,5 0 0 355 49,4 987,9
31 Nogales 02-09-2026 07:30 8,7 96,9 0 0,7 37 23,1 987,6
30 Nogales 02-09-2026 07:15 8,4 96,9 0 0 347 13,1 987,4
29 Nogales 02-09-2026 07:00 8,4 96,6 0 0 17 0,6 987,2
28 Nogales 02-09-2026 06:45 8,4 96,1 0 0 20 0,6 986,8
27 Nogales 02-09-2026 06:30 8,6 96,2 0 0 58 0,6 987
26 Nogales 02-09-2026 06:15 8,3 95,6 0 0 58 0,6 986,9
25 Nogales 02-09-2026 06:00 8,8 95,5 0 0 58 0,6 986,6
24 Nogales 02-09-2026 05:45 8,9 95,3 0 0 58 0,6 986,7
23 Nogales 02-09-2026 05:30 9 94,8 0 0 58 0,6 986,7
22 Nogales 02-09-2026 05:15 9,7 94,7 0 0 58 0,6 986,6
21 Nogales 02-09-2026 05:00 10 94,7 0 0 58 0,6 986,7
20 Nogales 02-09-2026 04:45 10,1 94,8 0 0 58 0,6 986,6
19 Nogales 02-09-2026 04:30 10 94,8 0 0 58 0,6 986,7
18 Nogales 02-09-2026 04:15 9,6 94,9 0 0,3 324 0,6 986,8
17 Nogales 02-09-2026 04:00 9,5 94,3 0 0 317 0,6 987
16 Nogales 02-09-2026 03:45 9,6 94,2 0 0 317 0,6 987
15 Nogales 02-09-2026 03:30 9,7 93,8 0 0 317 0,6 987
14 Nogales 02-09-2026 03:15 9,7 93,5 0 0 317 0,6 987,2
13 Nogales 02-09-2026 03:00 9,9 93,2 0 0 317 0,6 987,5
12 Nogales 02-09-2026 02:45 10,3 93,4 0 0,3 310 0,6 987,7
11 Nogales 02-09-2026 02:30 10,1 93,6 0 0 305 0,6 987,8
10 Nogales 02-09-2026 02:15 10,1 93,4 0 0 303 0,6 987,8
9 Nogales 02-09-2026 02:00 10,2 92,7 0 0 303 0,6 987,9
8 Nogales 02-09-2026 01:45 10,8 92,5 0 0 305 0,6 987,7
7 Nogales 02-09-2026 01:30 10,8 92,3 0 0 303 0,6 987,9
6 Nogales 02-09-2026 01:15 10,9 91,7 0 0 305 0,6 988
5 Nogales 02-09-2026 01:00 10,8 91,9 0 0 300 0,6 987,6
4 Nogales 02-09-2026 00:45 10,9 91,6 0 0 298 0,6 987,4
3 Nogales 02-09-2026 00:30 10,8 91,2 0 0 298 0,6 987,2
2 Nogales 02-09-2026 00:15 11,3 90,5 0 0 298 0,6 987
1 Nogales 02-09-2026 00:00 11,6 89,8 0 0 298 0,6 987,1